createdAt,value
2022-11-23T00:01:15.853Z,98086.75
2022-11-23T00:03:43.471Z,98083.47
2022-11-23T00:06:10.050Z,98092.78
2022-11-23T00:08:36.586Z,98094.34
2022-11-23T00:11:03.136Z,98091.50
2022-11-23T00:13:29.776Z,98086.94
2022-11-23T00:15:56.315Z,98088.31
2022-11-23T00:18:22.847Z,98082.63
2022-11-23T00:20:49.408Z,98082.88
2022-11-23T00:23:15.894Z,98078.47
2022-11-23T00:25:45.782Z,98077.22
2022-11-23T00:28:12.898Z,98067.06
2022-11-23T00:30:39.564Z,98081.78
2022-11-23T00:33:06.072Z,98065.25
2022-11-23T00:35:32.658Z,98064.59
2022-11-23T00:37:59.152Z,98063.00
2022-11-23T00:40:25.670Z,98063.88
2022-11-23T00:42:52.280Z,98054.59
2022-11-23T00:45:18.797Z,98060.03
2022-11-23T00:47:45.342Z,98050.28
2022-11-23T00:50:11.941Z,98056.88
2022-11-23T00:52:38.527Z,98054.47
2022-11-23T00:55:05.514Z,98056.75
2022-11-23T00:57:33.489Z,98059.81
2022-11-23T01:00:00.812Z,98052.34
2022-11-23T01:02:27.388Z,98056.75
2022-11-23T01:04:53.917Z,98049.63
2022-11-23T01:07:20.622Z,98045.00
2022-11-23T01:09:47.143Z,98036.50
2022-11-23T01:12:13.728Z,98040.81
2022-11-23T01:14:40.277Z,98034.81
2022-11-23T01:17:06.808Z,98042.16
2022-11-23T01:19:33.689Z,98041.72
2022-11-23T01:22:00.454Z,98047.16
2022-11-23T01:24:27.003Z,98050.22
2022-11-23T01:26:54.738Z,98041.03
2022-11-23T01:29:22.689Z,98042.16
2022-11-23T01:31:49.302Z,98045.56
2022-11-23T01:34:17.117Z,98045.22
2022-11-23T01:36:44.725Z,98045.91
2022-11-23T01:39:12.359Z,98039.22
2022-11-23T01:41:41.302Z,98029.38
2022-11-23T01:44:35.124Z,98028.69
2022-11-23T01:47:07.468Z,98025.63
2022-11-23T01:49:39.851Z,98023.81
2022-11-23T01:52:26.718Z,98025.53
2022-11-23T01:54:56.963Z,98020.47
2022-11-23T01:57:31.466Z,98030.97
2022-11-23T01:59:58.389Z,98023.53
2022-11-23T02:02:28.582Z,98031.69
2022-11-23T02:04:57.459Z,98028.84
2022-11-23T02:07:25.414Z,98034.28
2022-11-23T02:09:52.721Z,98031.19
2022-11-23T02:12:19.247Z,98032.69
2022-11-23T02:14:46.562Z,98036.31
2022-11-23T02:17:13.439Z,98031.56
2022-11-23T02:20:09.180Z,98025.78
2022-11-23T02:22:50.705Z,98025.09
2022-11-23T02:25:46.072Z,98025.88
2022-11-23T02:28:17.020Z,98034.38
2022-11-23T02:30:45.925Z,98034.72
2022-11-23T02:33:12.492Z,98031.31
2022-11-23T02:35:55.140Z,98032.22
2022-11-23T02:38:22.888Z,98034.38
2022-11-23T02:40:49.472Z,98024.38
2022-11-23T02:43:16.405Z,98017.91
2022-11-23T02:45:54.604Z,98019.50
2022-11-23T02:48:21.359Z,98028.78
2022-11-23T02:50:47.868Z,98027.66
2022-11-23T02:53:14.430Z,98025.81
2022-11-23T02:55:41.000Z,98022.66
2022-11-23T02:58:07.801Z,98034.44
2022-11-23T03:00:34.707Z,98044.84
2022-11-23T03:03:02.265Z,98044.31
2022-11-23T03:05:28.848Z,98038.97
2022-11-23T03:07:55.521Z,98050.28
2022-11-23T03:10:22.479Z,98057.75
2022-11-23T03:12:49.008Z,98062.06
2022-11-23T03:15:15.662Z,98050.50
2022-11-23T03:17:42.226Z,98051.97
2022-11-23T03:20:09.222Z,98056.59
2022-11-23T03:22:36.479Z,98045.97
2022-11-23T03:25:03.137Z,98048.19
2022-11-23T03:27:32.708Z,98035.16
2022-11-23T03:30:00.024Z,98041.03
2022-11-23T03:32:26.726Z,98049.28
2022-11-23T03:34:53.268Z,98049.06
2022-11-23T03:37:20.043Z,98045.69
2022-11-23T03:39:47.702Z,98052.91
2022-11-23T03:42:14.369Z,98044.06
2022-11-23T03:44:40.930Z,98037.81
2022-11-23T03:47:07.489Z,98049.94
2022-11-23T03:49:34.174Z,98056.94
2022-11-23T03:52:00.892Z,98046.66
2022-11-23T03:54:27.443Z,98045.97
2022-11-23T03:56:53.952Z,98037.28
2022-11-23T03:59:20.448Z,98043.84
2022-11-23T04:01:47.411Z,98055.19
2022-11-23T04:04:13.923Z,98046.31
2022-11-23T04:06:40.442Z,98047.47
2022-11-23T04:09:06.968Z,98045.88
2022-11-23T04:11:33.481Z,98042.34
2022-11-23T04:14:00.040Z,98044.31
2022-11-23T04:16:26.523Z,98037.72
2022-11-23T04:18:53.047Z,98047.91
2022-11-23T04:21:19.543Z,98048.25
2022-11-23T04:23:46.068Z,98045.88
2022-11-23T04:26:12.656Z,98069.53
2022-11-23T04:28:39.239Z,98058.66
2022-11-23T04:31:05.728Z,98067.97
2022-11-23T04:33:32.243Z,98077.28
2022-11-23T04:35:58.792Z,98070.72
2022-11-23T04:38:25.318Z,98069.78
2022-11-23T04:40:51.897Z,98065.63
2022-11-23T04:43:18.429Z,98066.06
2022-11-23T04:45:45.003Z,98070.63
2022-11-23T04:48:11.570Z,98064.75
2022-11-23T04:50:40.528Z,98077.44
2022-11-23T04:53:07.212Z,98073.16
2022-11-23T04:55:33.865Z,98070.00
2022-11-23T04:58:00.570Z,98076.53
2022-11-23T05:00:27.553Z,98082.66
2022-11-23T05:02:54.123Z,98085.38
2022-11-23T05:05:20.640Z,98084.63
2022-11-23T05:07:47.181Z,98087.66
2022-11-23T05:10:13.701Z,98086.41
2022-11-23T05:12:40.380Z,98091.84
2022-11-23T05:15:07.441Z,98088.00
2022-11-23T05:17:34.313Z,98105.88
2022-11-23T05:20:00.909Z,98094.69
2022-11-23T05:22:27.413Z,98106.91
2022-11-23T05:24:53.943Z,98110.78
2022-11-23T05:27:20.512Z,98110.31
2022-11-23T05:29:47.017Z,98123.59
2022-11-23T05:32:13.563Z,98120.97
2022-11-23T05:34:40.103Z,98118.00
2022-11-23T05:37:06.655Z,98114.50
2022-11-23T05:39:34.131Z,98113.72
2022-11-23T05:42:01.004Z,98108.59
2022-11-23T05:44:27.556Z,98116.28
2022-11-23T05:46:54.075Z,98117.78
2022-11-23T05:49:20.572Z,98114.72
2022-11-23T05:51:47.052Z,98131.03
2022-11-23T05:54:13.599Z,98119.56
2022-11-23T05:56:40.524Z,98120.69
2022-11-23T05:59:08.071Z,98120.81
2022-11-23T06:01:34.645Z,98134.53
2022-11-23T06:04:01.242Z,98130.22
2022-11-23T06:06:27.781Z,98126.59
2022-11-23T06:08:54.301Z,98119.13
2022-11-23T06:11:20.932Z,98124.66
2022-11-23T06:13:48.652Z,98125.69
2022-11-23T06:16:15.273Z,98126.59
2022-11-23T06:18:42.057Z,98129.56
2022-11-23T06:21:08.549Z,98131.94
2022-11-23T06:23:35.061Z,98134.00
2022-11-23T06:26:02.071Z,98140.19
2022-11-23T06:28:29.163Z,98127.84
2022-11-23T06:30:56.532Z,98137.94
2022-11-23T06:33:23.037Z,98142.34
2022-11-23T06:35:57.937Z,98152.00
2022-11-23T06:38:24.774Z,98145.06
2022-11-23T06:40:51.336Z,98142.69
2022-11-23T06:43:17.869Z,98143.84
2022-11-23T06:45:44.457Z,98142.91
2022-11-23T06:48:11.072Z,98147.44
2022-11-23T06:50:37.634Z,98151.06
2022-11-23T06:53:04.192Z,98155.47
2022-11-23T06:55:30.757Z,98154.22
2022-11-23T06:57:58.843Z,98155.91
2022-11-23T07:00:25.609Z,98164.19
2022-11-23T07:02:53.638Z,98168.59
2022-11-23T07:05:20.194Z,98171.19
2022-11-23T07:07:46.868Z,98172.78
2022-11-23T07:10:14.161Z,98165.72
2022-11-23T07:12:40.887Z,98184.91
2022-11-23T07:15:08.772Z,98180.13
2022-11-23T07:17:42.093Z,98184.91
2022-11-23T07:20:13.115Z,98190.22
2022-11-23T07:22:40.149Z,98193.19
2022-11-23T07:25:06.978Z,98183.91
2022-11-23T07:27:33.520Z,98176.97
2022-11-23T07:30:00.080Z,98177.88
2022-11-23T07:32:26.637Z,98179.09
2022-11-23T07:34:53.157Z,98170.03
2022-11-23T07:37:19.681Z,98176.34
2022-11-23T07:40:01.931Z,98174.63
2022-11-23T07:42:35.495Z,98169.19
2022-11-23T07:45:05.266Z,98160.09
2022-11-23T07:47:32.076Z,98162.72
2022-11-23T07:49:58.722Z,98157.72
2022-11-23T07:52:25.769Z,98151.59
2022-11-23T07:54:52.273Z,98151.59
2022-11-23T07:57:18.785Z,98147.66
2022-11-23T07:59:45.582Z,98149.31
2022-11-23T08:02:14.942Z,98157.03
2022-11-23T08:04:41.517Z,98145.44
2022-11-23T08:07:08.097Z,98140.78
2022-11-23T08:09:34.859Z,98140.91
2022-11-23T08:12:01.467Z,98139.06
2022-11-23T08:14:28.061Z,98143.81
2022-11-23T08:16:54.608Z,98140.75
2022-11-23T08:19:21.189Z,98139.88
2022-11-23T08:21:47.880Z,98131.00
2022-11-23T08:24:14.431Z,98142.69
2022-11-23T08:26:40.972Z,98141.53
2022-11-23T08:29:07.572Z,98136.53
2022-11-23T08:31:34.104Z,98142.34
2022-11-23T08:34:03.467Z,98142.88
2022-11-23T08:36:30.430Z,98143.75
2022-11-23T08:38:57.031Z,98146.22
2022-11-23T08:41:23.770Z,98159.09
2022-11-23T08:43:51.523Z,98150.06
2022-11-23T08:46:18.184Z,98156.50
2022-11-23T08:48:44.760Z,98153.41
2022-11-23T08:51:11.331Z,98150.63
2022-11-23T08:53:38.380Z,98148.03
2022-11-23T08:56:06.791Z,98159.97
2022-11-23T08:58:33.718Z,98155.06
2022-11-23T09:01:00.241Z,98163.06
2022-11-23T09:03:26.792Z,98163.06
2022-11-23T09:05:54.617Z,98154.22
2022-11-23T09:08:21.192Z,98159.47
2022-11-23T09:10:47.768Z,98170.28
2022-11-23T09:13:14.280Z,98165.16
2022-11-23T09:15:40.888Z,98166.72
2022-11-23T09:18:07.446Z,98161.38
2022-11-23T09:20:34.010Z,98167.81
2022-11-23T09:23:00.541Z,98163.22
2022-11-23T09:25:27.073Z,98162.97
2022-11-23T09:28:00.347Z,98157.69
2022-11-23T09:30:27.988Z,98148.81
2022-11-23T09:32:58.067Z,98154.81
2022-11-23T09:35:25.328Z,98160.00
2022-11-23T09:37:58.898Z,98144.44
2022-11-23T09:40:32.080Z,98146.13
2022-11-23T09:43:18.492Z,98146.00
2022-11-23T09:45:51.666Z,98138.09
2022-11-23T09:48:24.315Z,98142.59
2022-11-23T09:51:17.320Z,98133.88
2022-11-23T09:53:58.972Z,98133.78
2022-11-23T09:56:33.728Z,98133.09
2022-11-23T09:59:11.311Z,98128.81
2022-11-23T10:01:38.134Z,98129.56
2022-11-23T10:04:05.165Z,98131.59
2022-11-23T10:06:37.793Z,98128.59
2022-11-23T10:09:19.577Z,98117.09
2022-11-23T10:12:04.665Z,98118.44
2022-11-23T10:14:49.816Z,98115.06
2022-11-23T10:17:45.322Z,98111.75
2022-11-23T10:20:30.282Z,98112.81
2022-11-23T10:22:59.528Z,98113.03
2022-11-23T10:25:37.576Z,98123.19
2022-11-23T10:28:14.043Z,98101.97
2022-11-23T10:30:40.660Z,98121.41
2022-11-23T10:33:31.590Z,98131.63
2022-11-23T10:35:58.244Z,98116.59
2022-11-23T10:38:27.991Z,98122.03
2022-11-23T10:41:09.861Z,98124.13
2022-11-23T10:44:06.365Z,98132.84
2022-11-23T10:46:37.190Z,98122.28
2022-11-23T10:49:20.632Z,98125.53
2022-11-23T10:52:25.711Z,98120.25
2022-11-23T10:54:55.418Z,98115.34
2022-11-23T10:57:28.120Z,98116.31
2022-11-23T11:00:16.407Z,98123.09
2022-11-23T11:02:44.378Z,98116.03
2022-11-23T11:06:08.177Z,98118.50
2022-11-23T11:08:33.633Z,98122.81
2022-11-23T11:11:07.192Z,98111.53
2022-11-23T11:13:45.192Z,98116.47
2022-11-23T11:16:26.589Z,98110.56
2022-11-23T11:18:53.357Z,98123.69
2022-11-23T11:21:27.008Z,98109.50
2022-11-23T11:24:04.142Z,98118.53
2022-11-23T11:26:33.221Z,98105.25
2022-11-23T11:29:06.435Z,98119.38
2022-11-23T11:32:03.106Z,98120.81
2022-11-23T11:34:42.465Z,98121.38
2022-11-23T11:37:17.129Z,98119.59
2022-11-23T11:40:02.794Z,98125.47
2022-11-23T11:42:43.330Z,98120.00
2022-11-23T11:45:21.942Z,98112.00
2022-11-23T11:48:04.566Z,98113.47
2022-11-23T11:50:36.464Z,98115.22
2022-11-23T11:53:08.371Z,98106.94
2022-11-23T11:55:55.644Z,98106.34
2022-11-23T11:58:25.338Z,98111.97
2022-11-23T12:01:01.317Z,98106.75
2022-11-23T12:03:51.306Z,98106.81
2022-11-23T12:06:27.052Z,98107.50
2022-11-23T12:09:07.045Z,98107.22
2022-11-23T12:11:33.729Z,98110.75
2022-11-23T12:14:03.042Z,98094.63
2022-11-23T12:17:04.043Z,98110.28
2022-11-23T12:19:49.077Z,98106.13
2022-11-23T12:22:34.208Z,98108.50
2022-11-23T12:25:16.043Z,98096.56
2022-11-23T12:28:06.401Z,98107.16
2022-11-23T12:30:56.382Z,98104.03
2022-11-23T12:34:02.202Z,98096.94
2022-11-23T12:36:34.760Z,98106.91
2022-11-23T12:39:07.335Z,98110.72
2022-11-23T12:41:36.479Z,98092.47
2022-11-23T12:44:31.324Z,98093.94
2022-11-23T12:46:57.933Z,98095.66
2022-11-23T12:49:39.225Z,98092.97
2022-11-23T12:52:05.916Z,98097.22
2022-11-23T12:54:47.540Z,98092.22
2022-11-23T12:57:32.464Z,98088.25
2022-11-23T13:00:05.232Z,98097.69
2022-11-23T13:02:56.279Z,98090.91
2022-11-23T13:05:34.548Z,98099.94
2022-11-23T13:08:13.257Z,98096.88
2022-11-23T13:11:04.418Z,98087.03
2022-11-23T13:13:30.888Z,98087.47
2022-11-23T13:16:11.256Z,98089.03
2022-11-23T13:18:54.303Z,98083.66
2022-11-23T13:21:36.123Z,98089.63
2022-11-23T13:24:03.463Z,98086.19
2022-11-23T13:26:31.667Z,98089.34
2022-11-23T13:28:59.131Z,98089.34
2022-11-23T13:31:33.826Z,98081.16
2022-11-23T13:34:02.813Z,98082.72
2022-11-23T13:36:49.278Z,98083.28
2022-11-23T13:39:52.709Z,98083.34
2022-11-23T13:42:20.141Z,98084.09
2022-11-23T13:44:46.724Z,98085.59
2022-11-23T13:47:14.850Z,98087.88
2022-11-23T13:50:07.190Z,98087.09
2022-11-23T13:52:36.315Z,98091.47
2022-11-23T13:55:15.647Z,98098.22
2022-11-23T13:57:44.329Z,98097.28
2022-11-23T14:00:46.082Z,98101.25
2022-11-23T14:03:44.170Z,98102.69
2022-11-23T14:06:32.776Z,98099.25
2022-11-23T14:09:14.238Z,98101.25
2022-11-23T14:12:13.157Z,98106.78
2022-11-23T14:14:48.625Z,98110.31
2022-11-23T14:17:17.983Z,98115.41
2022-11-23T14:19:53.303Z,98104.41
2022-11-23T14:22:50.797Z,98112.03
2022-11-23T14:25:45.274Z,98110.00
2022-11-23T14:29:00.193Z,98118.19
2022-11-23T14:31:39.201Z,98112.03
2022-11-23T14:34:32.504Z,98118.78
2022-11-23T14:37:40.602Z,98116.78
2022-11-23T14:40:27.426Z,98127.25
2022-11-23T14:42:56.284Z,98129.25
2022-11-23T14:45:28.368Z,98131.19
2022-11-23T14:47:54.878Z,98133.59
2022-11-23T14:50:26.985Z,98126.63
2022-11-23T14:52:56.129Z,98127.75
2022-11-23T14:55:28.314Z,98131.28
2022-11-23T14:58:04.748Z,98131.19
2022-11-23T15:00:39.976Z,98132.38
2022-11-23T15:03:48.865Z,98133.66
2022-11-23T15:06:12.432Z,98120.38
2022-11-23T15:09:17.186Z,98128.97
2022-11-23T15:11:43.877Z,98129.69
2022-11-23T15:14:18.850Z,98129.69
2022-11-23T15:16:45.706Z,98129.56
2022-11-23T15:19:38.307Z,98120.56
2022-11-23T15:22:04.886Z,98124.38
2022-11-23T15:24:31.761Z,98120.94
2022-11-23T15:27:10.890Z,98134.88
2022-11-23T15:29:39.934Z,98131.72
2022-11-23T15:32:32.081Z,98128.69
2022-11-23T15:35:04.143Z,98132.56
2022-11-23T15:37:31.386Z,98140.03
2022-11-23T15:39:58.042Z,98135.22
2022-11-23T15:42:25.844Z,98129.41
2022-11-23T15:44:53.277Z,98143.84
2022-11-23T15:47:27.735Z,98148.13
2022-11-23T15:50:09.434Z,98150.44
2022-11-23T15:52:38.155Z,98142.25
2022-11-23T15:55:09.675Z,98149.75
2022-11-23T15:57:37.703Z,98146.59
2022-11-23T16:00:05.543Z,98155.09
2022-11-23T16:02:32.472Z,98150.88
2022-11-23T16:05:25.459Z,98146.59
2022-11-23T16:07:55.084Z,98153.44
2022-11-23T16:10:48.378Z,98143.41
2022-11-23T16:13:37.817Z,98146.06
2022-11-23T16:16:19.180Z,98152.38
2022-11-23T16:18:48.719Z,98152.84
2022-11-23T16:21:18.504Z,98156.69
2022-11-23T16:23:54.229Z,98169.91
2022-11-23T16:26:29.343Z,98167.47
2022-11-23T16:28:58.206Z,98164.47
2022-11-23T16:31:37.539Z,98159.84
2022-11-23T16:34:13.521Z,98158.28
2022-11-23T16:36:40.307Z,98156.59
2022-11-23T16:39:06.831Z,98158.56
2022-11-23T16:41:33.486Z,98168.56
2022-11-23T16:44:00.134Z,98169.81
2022-11-23T16:46:26.701Z,98167.53
2022-11-23T16:48:55.529Z,98169.34
2022-11-23T16:51:22.058Z,98173.94
2022-11-23T16:56:35.400Z,98175.94
2022-11-23T16:59:02.192Z,98172.97
2022-11-23T17:01:30.185Z,98162.81
2022-11-23T17:03:56.737Z,98182.91
2022-11-23T17:06:23.457Z,98173.59
2022-11-23T17:08:59.323Z,98186.16
2022-11-23T17:11:27.989Z,98183.00
2022-11-23T17:13:56.326Z,98189.59
2022-11-23T17:16:25.794Z,98184.94
2022-11-23T17:18:52.928Z,98181.06
2022-11-23T17:21:19.943Z,98181.22
2022-11-23T17:23:46.954Z,98179.78
2022-11-23T17:26:35.730Z,98184.59
2022-11-23T17:29:05.262Z,98190.06
2022-11-23T17:31:32.213Z,98180.00
2022-11-23T17:33:58.722Z,98194.81
2022-11-23T17:36:26.761Z,98189.28
2022-11-23T17:38:53.945Z,98192.00
2022-11-23T17:41:20.557Z,98192.38
2022-11-23T17:43:47.124Z,98195.66
2022-11-23T17:46:18.998Z,98196.16
2022-11-23T17:48:46.564Z,98192.19
2022-11-23T17:51:13.766Z,98189.94
2022-11-23T17:53:41.175Z,98203.13
2022-11-23T17:56:16.933Z,98198.81
2022-11-23T17:58:43.927Z,98197.75
2022-11-23T18:01:15.857Z,98197.22
2022-11-23T18:03:45.970Z,98208.00
2022-11-23T18:06:22.152Z,98205.28
2022-11-23T18:08:50.710Z,98205.28
2022-11-23T18:11:17.788Z,98208.00
2022-11-23T18:13:44.597Z,98212.03
2022-11-23T18:16:11.396Z,98215.13
2022-11-23T18:18:38.173Z,98213.28
2022-11-23T18:21:06.011Z,98210.88
2022-11-23T18:23:33.049Z,98216.28
2022-11-23T18:26:17.286Z,98219.50
2022-11-23T18:28:44.197Z,98214.97
2022-11-23T18:31:10.856Z,98208.97
2022-11-23T18:33:37.717Z,98214.09
2022-11-23T18:36:05.861Z,98216.03
2022-11-23T18:38:34.141Z,98222.19
2022-11-23T18:41:00.847Z,98223.69
2022-11-23T18:43:27.562Z,98228.22
2022-11-23T18:45:54.352Z,98228.31
2022-11-23T18:48:20.961Z,98229.00
2022-11-23T18:50:47.536Z,98231.47
2022-11-23T18:53:14.324Z,98226.81
2022-11-23T18:55:40.894Z,98233.41
2022-11-23T18:58:07.446Z,98232.97
2022-11-23T19:00:34.109Z,98234.38
2022-11-23T19:03:02.596Z,98237.63
2022-11-23T19:05:33.518Z,98241.16
2022-11-23T19:08:05.926Z,98250.91
2022-11-23T19:10:35.065Z,98245.97
2022-11-23T19:13:05.499Z,98241.75
2022-11-23T19:15:33.252Z,98253.44
2022-11-23T19:18:00.056Z,98260.41
2022-11-23T19:20:26.741Z,98258.72
2022-11-23T19:22:53.394Z,98255.63
2022-11-23T19:25:19.972Z,98257.28
2022-11-23T19:27:48.833Z,98257.41
2022-11-23T19:30:15.823Z,98259.28
2022-11-23T19:32:43.524Z,98261.28
2022-11-23T19:35:10.500Z,98262.00
2022-11-23T19:37:37.280Z,98251.53
2022-11-23T19:40:04.438Z,98251.94
2022-11-23T19:42:33.572Z,98258.28
2022-11-23T19:45:00.200Z,98257.28
2022-11-23T19:47:29.214Z,98255.00
2022-11-23T19:49:55.741Z,98254.81
2022-11-23T19:52:22.238Z,98254.00
2022-11-23T19:54:48.833Z,98262.84
2022-11-23T19:57:15.365Z,98264.19
2022-11-23T19:59:41.852Z,98260.13
2022-11-23T20:02:20.201Z,98257.78
2022-11-23T20:04:47.610Z,98263.38
2022-11-23T20:07:14.246Z,98264.38
2022-11-23T20:09:40.785Z,98263.72
2022-11-23T20:12:07.359Z,98264.47
2022-11-23T20:14:33.890Z,98262.34
2022-11-23T20:17:00.388Z,98268.47
2022-11-23T20:19:26.963Z,98276.06
2022-11-23T20:21:53.566Z,98275.41
2022-11-23T20:24:20.070Z,98272.56
2022-11-23T20:26:46.621Z,98273.72
2022-11-23T20:29:14.155Z,98281.75
2022-11-23T20:31:41.119Z,98280.75
2022-11-23T20:34:09.573Z,98275.28
2022-11-23T20:36:38.593Z,98291.69
2022-11-23T20:39:07.784Z,98291.84
2022-11-23T20:41:36.168Z,98287.25
2022-11-23T20:44:14.193Z,98298.94
2022-11-23T20:49:27.593Z,98291.22
2022-11-23T20:51:54.144Z,98295.19
2022-11-23T20:54:20.663Z,98303.38
2022-11-23T20:56:47.210Z,98304.06
2022-11-23T20:59:13.903Z,98301.91
2022-11-23T21:01:40.872Z,98306.00
2022-11-23T21:04:08.926Z,98299.47
2022-11-23T21:06:39.038Z,98306.38
2022-11-23T21:09:06.231Z,98299.03
2022-11-23T21:11:51.393Z,98304.50
2022-11-23T21:14:20.237Z,98304.50
2022-11-23T21:16:56.177Z,98295.38
2022-11-23T21:19:28.593Z,98298.81
2022-11-23T21:21:56.800Z,98298.00
2022-11-23T21:24:23.865Z,98304.91
2022-11-23T21:26:50.422Z,98308.06
2022-11-23T21:29:17.715Z,98309.66
2022-11-23T21:31:45.613Z,98308.50
2022-11-23T21:34:23.501Z,98309.66
2022-11-23T21:36:51.410Z,98320.31
2022-11-23T21:39:18.472Z,98315.28
2022-11-23T21:41:45.715Z,98321.31
2022-11-23T21:44:12.783Z,98314.34
2022-11-23T21:46:40.888Z,98308.84
2022-11-23T21:49:08.438Z,98318.00
2022-11-23T21:51:37.366Z,98324.19
2022-11-23T21:54:06.701Z,98321.03
2022-11-23T21:56:33.361Z,98326.06
2022-11-23T21:59:00.090Z,98333.06
2022-11-23T22:01:30.084Z,98344.91
2022-11-23T22:03:59.671Z,98347.25
2022-11-23T22:06:26.226Z,98343.66
2022-11-23T22:08:55.221Z,98349.56
2022-11-23T22:11:30.157Z,98351.50
2022-11-23T22:14:02.129Z,98348.50
2022-11-23T22:16:37.231Z,98353.25
2022-11-23T22:19:04.773Z,98357.63
2022-11-23T22:21:36.348Z,98350.50
2022-11-23T22:24:04.223Z,98357.81
2022-11-23T22:26:31.480Z,98353.94
2022-11-23T22:29:02.554Z,98353.53
2022-11-23T22:31:34.048Z,98364.78
2022-11-23T22:34:06.185Z,98363.56
2022-11-23T22:36:33.187Z,98369.75
2022-11-23T22:39:02.682Z,98367.25
2022-11-23T22:41:30.846Z,98369.22
2022-11-23T22:43:57.420Z,98371.66
2022-11-23T22:46:25.376Z,98380.19
2022-11-23T22:48:52.848Z,98381.00
2022-11-23T22:51:22.253Z,98382.59
2022-11-23T22:53:53.660Z,98383.63
2022-11-23T22:56:20.952Z,98390.59
2022-11-23T22:58:48.471Z,98391.66
2022-11-23T23:01:17.641Z,98404.72
2022-11-23T23:03:44.874Z,98393.78
2022-11-23T23:06:16.402Z,98407.19
2022-11-23T23:08:43.466Z,98409.91
2022-11-23T23:11:10.270Z,98408.31
2022-11-23T23:13:37.124Z,98405.16
2022-11-23T23:16:10.190Z,98420.84
2022-11-23T23:18:36.728Z,98415.28
2022-11-23T23:21:11.025Z,98416.78
2022-11-23T23:23:38.805Z,98422.34
2022-11-23T23:26:06.324Z,98420.75
2022-11-23T23:28:33.529Z,98430.97
2022-11-23T23:31:04.968Z,98419.94
2022-11-23T23:33:33.369Z,98432.38
2022-11-23T23:36:08.107Z,98425.41
2022-11-23T23:38:35.386Z,98425.56
2022-11-23T23:41:02.043Z,98434.31
2022-11-23T23:43:29.306Z,98438.25
2022-11-23T23:46:00.720Z,98434.94
2022-11-23T23:48:35.425Z,98439.50
2022-11-23T23:51:10.730Z,98439.50
2022-11-23T23:53:37.971Z,98446.56
2022-11-23T23:56:07.587Z,98444.25
2022-11-23T23:58:34.623Z,98449.03
